Time;durP1;ratioP1;P1;durP2;ratioP2;P2;SDS_P1;SDS_P2;PMS_P1;PMS_P2;Temp;Humidity;BMP_temperature;BMP_pressure;BME280_temperature;BME280_humidity;BME280_pressure;Samples;Min_cycle;Max_cycle;Signal;HPM_P1;HPM_P2
2021/07/29 00:01:30;;;;;;;6.20;1.80;;;;;;;15.67;72.62;100945.00;5115080;28;20030;-35
2021/07/29 00:03:56;;;;;;;8.87;2.33;;;;;;;15.76;72.29;100952.66;5115347;28;20016;-35
2021/07/29 00:06:21;;;;;;;;;;;;;;;15.83;72.43;100950.53;5115722;28;20035;-35
2021/07/29 00:08:47;;;;;;;8.05;1.70;;;;;;;15.78;71.94;100943.16;5114649;28;19903;-35
2021/07/29 00:11:18;;;;;;;8.67;2.07;;;;;;;15.72;71.87;100925.13;5115708;28;20360;-35
2021/07/29 00:13:43;;;;;;;5.57;1.83;;;;;;;15.71;72.36;100939.81;5115689;28;20280;-35
2021/07/29 00:16:09;;;;;;;8.60;1.80;;;;;;;15.77;71.57;100943.41;5115476;28;20032;-35
2021/07/29 00:21:19;;;;;;;6.50;1.58;;;;;;;15.66;72.90;100932.44;5115544;28;20371;-35
2021/07/29 00:23:46;;;;;;;;;;;;;;;15.76;72.19;100936.31;5115269;28;20027;-39
2021/07/29 00:26:11;;;;;;;;;;;;;;;15.70;72.04;100933.53;5115932;27;19929;-35
2021/07/29 00:28:36;;;;;;;5.17;1.53;;;;;;;15.50;72.83;100927.09;5114877;28;19968;-35
2021/07/29 00:31:02;;;;;;;6.03;1.80;;;;;;;15.55;72.77;100936.13;5114510;28;20464;-35
2021/07/29 00:33:27;;;;;;;7.70;1.50;;;;;;;15.58;72.69;100935.63;5114862;28;20262;-35
2021/07/29 00:35:52;;;;;;;5.00;1.57;;;;;;;15.55;72.86;100941.59;5115039;28;20257;-35
2021/07/29 00:38:18;;;;;;;3.20;1.70;;;;;;;15.46;72.97;100929.53;5114416;28;20019;-35
2021/07/29 00:40:43;;;;;;;4.38;1.67;;;;;;;15.34;73.15;100918.00;5114948;28;20448;-35
2021/07/29 00:43:08;;;;;;;5.43;1.60;;;;;;;15.51;73.50;100943.19;5114541;28;20084;-35
2021/07/29 00:45:33;;;;;;;8.83;1.80;;;;;;;15.49;73.29;100947.28;5114848;28;20241;-35
2021/07/29 00:47:59;;;;;;;3.53;1.73;;;;;;;15.46;73.38;100929.53;5114749;28;20046;-35
2021/07/29 00:50:24;;;;;;;5.47;1.70;;;;;;;15.56;72.64;100935.03;5114111;28;20028;-35
2021/07/29 00:52:50;;;;;;;7.20;1.92;;;;;;;15.48;73.21;100937.47;5114026;28;20030;-35
2021/07/29 00:55:20;;;;;;;7.53;1.80;;;;;;;15.49;73.66;100937.19;5114613;28;20092;-35
2021/07/29 00:57:46;;;;;;;5.90;1.75;;;;;;;15.46;73.75;100934.97;5113955;28;20024;-35
2021/07/29 01:00:11;;;;;;;5.22;1.75;;;;;;;15.45;73.66;100930.63;5114289;28;20089;-35
2021/07/29 01:02:37;;;;;;;6.35;2.08;;;;;;;15.47;73.18;100923.03;5114495;28;20145;-35
2021/07/29 01:05:05;;;;;;;5.05;2.20;;;;;;;15.44;73.09;100928.97;5114801;27;20076;-35
2021/07/29 01:07:31;;;;;;;6.63;1.90;;;;;;;15.44;73.56;100923.53;5112873;28;20027;-35
2021/07/29 01:09:56;;;;;;;5.23;1.77;;;;;;;15.49;72.87;100928.19;5114053;28;20030;-35
2021/07/29 01:12:21;;;;;;;7.78;1.88;;;;;;;15.40;72.37;100909.59;5114216;28;20055;-35
2021/07/29 01:14:47;;;;;;;5.72;1.50;;;;;;;15.52;73.55;100914.88;5114456;28;20019;-35
2021/07/29 01:17:12;;;;;;;7.50;2.30;;;;;;;15.50;73.02;100916.22;5114736;28;20102;-35
2021/07/29 01:19:37;;;;;;;5.90;2.22;;;;;;;15.52;72.57;100922.22;5114274;28;20031;-35
2021/07/29 01:22:03;;;;;;;5.20;1.60;;;;;;;15.51;73.34;100923.28;5113583;28;20026;-35
2021/07/29 01:24:28;;;;;;;7.07;1.88;;;;;;;15.49;72.96;100909.13;5113575;28;20050;-35
2021/07/29 01:26:54;;;;;;;6.13;1.87;;;;;;;15.48;72.80;100913.75;5113827;28;20106;-35
2021/07/29 01:29:19;;;;;;;6.72;1.98;;;;;;;15.53;72.77;100918.41;5113310;28;20323;-35
2021/07/29 01:31:45;;;;;;;;;;;;;;;15.57;72.73;100914.91;5114360;28;20019;-35
2021/07/29 01:34:10;;;;;;;7.50;1.83;;;;;;;15.52;72.34;100919.47;5114019;28;19968;-35
2021/07/29 01:36:35;;;;;;;7.53;2.13;;;;;;;15.44;72.09;100899.81;5114412;28;20030;-35
2021/07/29 01:39:01;;;;;;;6.50;1.73;;;;;;;15.53;72.68;100904.78;5113551;28;20026;-35
2021/07/29 01:41:26;;;;;;;9.88;2.10;;;;;;;15.45;72.11;100903.38;5114190;28;20100;-35
2021/07/29 01:43:53;;;;;;;4.85;1.98;;;;;;;15.44;72.02;100907.19;5113883;28;20067;-35
2021/07/29 01:46:18;;;;;;;5.57;2.00;;;;;;;15.36;72.42;100896.75;5113225;28;20030;-35
2021/07/29 01:48:43;;;;;;;6.90;2.43;;;;;;;15.46;72.62;100913.19;5113575;28;20120;-35
2021/07/29 01:51:09;;;;;;;5.93;2.27;;;;;;;15.40;73.01;100912.31;5113933;28;20106;-35
2021/07/29 01:53:34;;;;;;;7.05;1.80;;;;;;;15.37;73.01;100917.47;5113388;28;20268;-35
2021/07/29 01:55:59;;;;;;;6.80;1.80;;;;;;;15.31;73.23;100913.88;5114214;28;20135;-35
2021/07/29 01:58:25;;;;;;;8.97;2.00;;;;;;;15.34;73.42;100920.72;5113454;28;20399;-35
2021/07/29 02:00:51;;;;;;;7.13;1.63;;;;;;;15.33;73.43;100925.38;5113527;28;20306;-35
2021/07/29 02:03:17;;;;;;;7.60;1.95;;;;;;;15.30;73.26;100916.88;5113551;28;20270;-35
2021/07/29 02:05:42;;;;;;;9.10;2.30;;;;;;;15.24;73.29;100926.09;5113574;28;20365;-35
2021/07/29 02:08:08;;;;;;;9.23;2.78;;;;;;;15.28;72.74;100927.22;5113297;28;20020;-35
2021/07/29 02:10:34;;;;;;;5.43;2.00;;;;;;;15.16;73.06;100906.41;5113422;28;20092;-35
2021/07/29 02:13:01;;;;;;;7.93;1.92;;;;;;;15.23;73.24;100924.47;5113302;28;20420;-35
2021/07/29 02:15:27;;;;;;;7.82;1.80;;;;;;;15.22;73.94;100923.63;5113601;28;20023;-35
2021/07/29 02:17:56;;;;;;;8.18;2.15;;;;;;;15.18;73.73;100911.63;5113689;28;20068;-35
2021/07/29 02:20:22;;;;;;;9.35;2.20;;;;;;;15.20;73.64;100914.91;5113320;28;20024;-35
2021/07/29 02:22:48;;;;;;;6.15;1.98;;;;;;;15.19;73.95;100916.81;5113503;28;20117;-35
2021/07/29 02:25:13;;;;;;;7.18;2.17;;;;;;;15.19;74.00;100921.44;5112994;28;20027;-35
2021/07/29 02:27:38;;;;;;;11.13;2.73;;;;;;;15.18;74.12;100909.72;5113152;28;20115;-35
2021/07/29 02:30:04;;;;;;;6.75;1.83;;;;;;;14.96;74.23;100887.19;5113902;28;20364;-35
2021/07/29 02:32:30;;;;;;;7.47;2.15;;;;;;;15.05;74.52;100910.13;5116769;28;20023;-35
2021/07/29 02:34:55;;;;;;;8.10;2.60;;;;;;;15.07;74.56;100910.69;5117074;28;20106;-35
2021/07/29 02:37:21;;;;;;;9.30;2.08;;;;;;;14.97;74.44;100894.25;5117311;28;20026;-35
2021/07/29 02:39:46;;;;;;;4.55;2.10;;;;;;;15.06;74.21;100916.41;5116959;28;20024;-35
2021/07/29 02:42:12;;;;;;;5.78;1.70;;;;;;;15.02;74.68;100909.81;5117217;28;20030;-35
2021/07/29 02:44:37;;;;;;;6.77;2.10;;;;;;;14.98;74.31;100917.69;5117050;28;20447;-35
2021/07/29 02:47:03;;;;;;;8.23;2.33;;;;;;;14.90;75.01;100913.53;5117156;28;20241;-35
2021/07/29 02:49:28;;;;;;;8.45;2.28;;;;;;;14.86;75.21;100922.47;5116633;28;20360;-35
2021/07/29 02:51:54;;;;;;;8.93;2.00;;;;;;;14.96;75.38;100944.38;5117115;27;20089;-35
2021/07/29 02:54:19;;;;;;;8.00;2.25;;;;;;;14.92;75.27;100935.06;5116748;28;20023;-35
2021/07/29 02:56:44;;;;;;;7.47;2.03;;;;;;;14.85;75.51;100942.63;5116722;28;20528;-35
2021/07/29 02:59:10;;;;;;;10.15;2.38;;;;;;;14.81;76.03;100930.59;5116631;28;20266;-35
2021/07/29 03:01:35;;;;;;;11.90;2.37;;;;;;;14.80;75.93;100937.13;5116543;28;20027;-35
2021/07/29 03:04:01;;;;;;;7.80;2.17;;;;;;;14.82;75.96;100935.78;5116486;27;20273;-35
2021/07/29 03:06:26;;;;;;;10.43;2.20;;;;;;;14.84;76.12;100927.38;5116275;28;20023;-35
2021/07/29 03:08:52;;;;;;;6.60;2.33;;;;;;;14.71;76.25;100911.44;5116098;28;20032;-35
2021/07/29 03:11:17;;;;;;;10.93;2.33;;;;;;;14.74;76.19;100925.38;5116907;28;20033;-35
2021/07/29 03:13:42;;;;;;;7.05;1.88;;;;;;;14.79;76.60;100933.59;5117376;28;20047;-35
2021/07/29 03:16:08;;;;;;;7.43;2.07;;;;;;;14.77;76.55;100940.34;5116260;28;20023;-35
2021/07/29 03:18:34;;;;;;;7.33;2.53;;;;;;;14.63;76.87;100929.03;5116597;28;20273;-35
2021/07/29 03:20:59;;;;;;;9.93;2.70;;;;;;;14.73;76.73;100944.66;5116165;27;20035;-35
2021/07/29 03:23:24;;;;;;;9.17;2.37;;;;;;;14.72;77.30;100940.31;5115020;28;20046;-35
2021/07/29 03:25:51;;;;;;;11.40;2.50;;;;;;;14.73;76.99;100944.66;5115859;28;20064;-35
2021/07/29 03:28:18;;;;;;;15.75;3.10;;;;;;;14.72;77.07;100948.47;5115725;28;20034;-35
2021/07/29 03:30:44;;;;;;;12.30;2.85;;;;;;;14.69;77.26;100938.94;5116221;28;20024;-35
2021/07/29 03:33:10;;;;;;;8.63;2.20;;;;;;;14.67;77.08;100938.34;5116077;28;20068;-35
2021/07/29 03:35:41;;;;;;;14.85;2.90;;;;;;;14.59;77.38;100922.47;5116364;28;20444;-35
2021/07/29 03:38:08;;;;;;;7.05;2.33;;;;;;;14.64;77.40;100942.41;5115504;28;20375;-35
2021/07/29 03:40:34;;;;;;;;;;;;;;;14.75;76.86;100947.97;5116250;28;20032;-34
2021/07/29 03:43:02;;;;;;;7.70;2.22;;;;;;;14.68;77.79;100943.53;5114753;28;19904;-35
2021/07/29 03:45:29;;;;;;;11.57;2.83;;;;;;;14.61;77.84;100940.19;5115697;28;20412;-35
2021/07/29 03:47:54;;;;;;;11.18;2.60;;;;;;;14.64;77.33;100939.69;5115860;28;20034;-35
2021/07/29 03:50:19;;;;;;;15.57;2.65;;;;;;;14.50;77.60;100924.84;5116292;28;20027;-35
2021/07/29 03:52:45;;;;;;;10.53;3.00;;;;;;;14.37;78.02;100915.13;5113968;28;20463;-35
2021/07/29 03:55:10;;;;;;;8.13;2.30;;;;;;;14.56;77.88;100942.03;5115981;28;20030;-35
2021/07/29 03:57:35;;;;;;;7.57;2.23;;;;;;;14.65;78.04;100954.13;5115362;28;20643;-35
2021/07/29 04:00:03;;;;;;;9.60;2.17;;;;;;;14.66;77.86;100950.31;5115624;28;20285;-35
2021/07/29 04:02:28;;;;;;;11.50;3.47;;;;;;;14.60;78.59;100946.72;5114911;28;20173;-35
2021/07/29 04:04:53;;;;;;;12.27;3.13;;;;;;;14.63;78.06;100951.63;5115552;28;20121;-35
2021/07/29 04:07:19;;;;;;;11.15;2.70;;;;;;;14.65;78.22;100959.56;5115781;28;20024;-35
2021/07/29 04:09:44;;;;;;;15.23;3.00;;;;;;;14.68;77.92;100961.75;5115402;28;20016;-35
2021/07/29 04:12:09;;;;;;;8.03;2.47;;;;;;;14.69;77.84;100960.72;5115314;28;20433;-35
2021/07/29 04:14:35;;;;;;;12.60;3.50;;;;;;;14.70;78.35;100961.53;5115509;28;20027;-35
2021/07/29 04:17:01;;;;;;;8.75;2.22;;;;;;;14.69;78.11;100957.97;5115645;28;20023;-34
2021/07/29 04:19:30;;;;;;;12.30;3.05;;;;;;;14.61;78.14;100942.91;5115045;28;20022;-35
2021/07/29 04:21:56;;;;;;;8.65;2.35;;;;;;;14.80;77.49;100967.91;5114986;28;20016;-35
2021/07/29 04:24:21;;;;;;;12.00;2.33;;;;;;;14.77;77.60;100973.84;5115463;28;20023;-35
2021/07/29 04:26:46;;;;;;;9.43;2.83;;;;;;;14.73;77.50;100961.81;5115153;28;20020;-35
2021/07/29 04:29:12;;;;;;;10.20;2.53;;;;;;;14.74;77.75;100957.19;5114686;28;20141;-35
2021/07/29 04:31:37;;;;;;;8.50;2.77;;;;;;;14.65;77.84;100949.50;5114782;28;20043;-35
2021/07/29 04:34:02;;;;;;;7.37;2.90;;;;;;;14.86;77.45;100976.94;5114680;28;20332;-35
2021/07/29 04:36:28;;;;;;;8.67;2.43;;;;;;;14.85;77.65;100980.75;5114929;28;20261;-35
2021/07/29 04:38:53;;;;;;;6.40;2.50;;;;;;;14.86;78.12;100985.09;5114929;28;20262;-35
2021/07/29 04:41:18;;;;;;;9.75;2.20;;;;;;;14.88;77.60;100985.66;5114817;28;20051;-35
2021/07/29 04:43:44;;;;;;;6.97;2.60;;;;;;;14.88;78.08;100988.38;5114557;28;20522;-35
2021/07/29 04:46:09;;;;;;;9.33;2.60;;;;;;;14.83;77.76;100980.16;5114759;28;20344;-35
2021/07/29 04:48:34;;;;;;;11.67;3.23;;;;;;;14.88;78.30;100989.22;5114426;28;20106;-35
2021/07/29 04:51:04;;;;;;;7.55;2.22;;;;;;;14.89;77.65;100993.59;5114467;28;20104;-34
2021/07/29 04:53:30;;;;;;;11.77;2.85;;;;;;;14.92;77.90;100992.25;5113838;28;20019;-35
2021/07/29 04:55:55;;;;;;;9.88;2.60;;;;;;;14.99;77.93;100995.59;5114466;28;20080;-35
2021/07/29 04:58:21;;;;;;;13.10;2.33;;;;;;;15.02;78.09;100994.25;5114073;28;20023;-35
2021/07/29 05:00:46;;;;;;;13.20;2.50;;;;;;;14.96;77.67;100984.38;5114577;27;20267;-35
2021/07/29 05:03:11;;;;;;;9.65;2.65;;;;;;;15.00;78.27;100994.50;5114068;28;20480;-35
2021/07/29 05:05:37;;;;;;;10.87;2.77;;;;;;;14.96;78.09;100974.31;5114246;28;20023;-35
2021/07/29 05:08:02;;;;;;;9.93;3.28;;;;;;;15.06;77.91;100992.66;5114333;28;20058;-35
2021/07/29 05:10:28;;;;;;;12.43;2.83;;;;;;;15.09;77.81;100994.88;5114455;28;20026;-35
2021/07/29 05:12:54;;;;;;;7.95;2.38;;;;;;;15.08;77.93;100985.88;5114407;28;20058;-35
2021/07/29 05:15:19;;;;;;;10.68;2.58;;;;;;;14.99;77.96;100984.72;5113798;28;20024;-35
2021/07/29 05:17:45;;;;;;;14.50;2.80;;;;;;;15.09;77.96;101001.16;5113707;27;20028;-35
2021/07/29 05:20:10;;;;;;;13.93;2.80;;;;;;;15.01;78.08;100982.53;5113796;27;20040;-35
2021/07/29 05:22:36;;;;;;;7.90;2.38;;;;;;;15.07;78.27;101000.56;5114517;28;20273;-35
2021/07/29 05:25:02;;;;;;;11.40;3.20;;;;;;;15.01;77.74;100993.44;5114790;28;20027;-35
2021/07/29 05:27:27;;;;;;;8.00;2.53;;;;;;;15.09;77.44;101005.78;5114622;27;20411;-35
2021/07/29 05:29:52;;;;;;;14.73;3.10;;;;;;;14.97;78.06;100981.41;5113447;27;20023;-35
2021/07/29 05:32:18;;;;;;;14.30;3.63;;;;;;;15.03;77.91;100996.72;5114706;28;20023;-35
2021/07/29 05:34:43;;;;;;;14.47;2.97;;;;;;;15.08;78.02;101009.56;5113684;28;20046;-35
2021/07/29 05:37:08;;;;;;;15.47;4.17;;;;;;;15.00;77.88;101004.59;5114527;28;20253;-36
2021/07/29 05:39:34;;;;;;;15.03;2.63;;;;;;;15.04;77.43;101011.16;5113836;28;20591;-35
2021/07/29 05:42:01;;;;;;;11.13;2.58;;;;;;;15.02;77.92;101010.59;5114636;28;20315;-36
2021/07/29 05:44:26;;;;;;;11.20;2.42;;;;;;;15.14;77.64;101019.44;5114204;28;20121;-36
2021/07/29 05:46:52;;;;;;;11.10;2.70;;;;;;;15.29;77.85;101010.59;5113905;28;20055;-36
2021/07/29 05:49:17;;;;;;;10.60;3.28;;;;;;;15.42;77.40;101004.69;5113979;28;20051;-36
2021/07/29 05:51:42;;;;;;;13.63;3.17;;;;;;;15.46;76.33;101009.38;5114262;28;20023;-36
2021/07/29 05:54:08;;;;;;;16.80;3.30;;;;;;;15.52;76.92;101012.13;5113423;28;20047;-36
2021/07/29 05:56:33;;;;;;;10.90;2.75;;;;;;;15.44;76.54;101005.28;5114248;28;20031;-36
2021/07/29 05:58:59;;;;;;;16.00;3.38;;;;;;;15.51;76.67;101015.94;5113638;28;20486;-36
2021/07/29 06:01:24;;;;;;;13.00;2.70;;;;;;;15.53;76.36;101020.06;5114092;28;20068;-36
2021/07/29 06:03:49;;;;;;;10.57;3.08;;;;;;;15.42;76.04;101007.44;5113570;28;20027;-36
2021/07/29 06:06:15;;;;;;;11.90;2.80;;;;;;;15.56;76.03;101016.81;5116023;28;20055;-36
2021/07/29 06:08:40;;;;;;;12.45;2.65;;;;;;;15.51;77.27;101013.22;5117797;28;20439;-36
2021/07/29 06:11:06;;;;;;;13.68;2.95;;;;;;;15.66;76.13;101016.97;5118251;28;20035;-36
2021/07/29 06:13:31;;;;;;;11.33;2.87;;;;;;;15.64;76.60;101026.47;5117969;28;20074;-36
2021/07/29 06:16:02;;;;;;;11.80;3.05;;;;;;;15.66;76.13;101027.88;5117558;28;20272;-36
2021/07/29 06:18:28;;;;;;;10.45;2.63;;;;;;;15.64;75.89;101019.09;5117345;28;20028;-36
2021/07/29 06:20:53;;;;;;;11.82;2.67;;;;;;;15.70;76.32;101020.78;5117628;28;20028;-36
2021/07/29 06:23:19;;;;;;;10.93;2.63;;;;;;;15.75;75.80;101020.00;5117415;28;20386;-36
2021/07/29 06:25:44;;;;;;;16.77;3.25;;;;;;;15.78;74.72;101033.13;5117352;28;20238;-35
2021/07/29 06:28:13;;;;;;;14.73;2.80;;;;;;;15.85;75.78;101032.88;5117057;28;20038;-36
2021/07/29 06:30:38;;;;;;;15.32;3.22;;;;;;;15.89;74.94;101031.28;5117422;28;20019;-36
2021/07/29 06:33:04;;;;;;;13.87;3.40;;;;;;;15.93;75.51;101041.41;5117432;28;20031;-36
2021/07/29 06:35:29;;;;;;;11.40;2.65;;;;;;;15.94;74.88;101032.13;5117191;28;20261;-36
2021/07/29 06:37:56;;;;;;;11.97;2.50;;;;;;;16.03;74.27;101039.84;5116828;28;20028;-36
2021/07/29 06:40:21;;;;;;;12.43;2.67;;;;;;;16.03;73.93;101040.66;5117764;28;20286;-36
2021/07/29 06:42:47;;;;;;;9.53;2.63;;;;;;;15.89;73.91;101036.75;5116756;28;20102;-36
2021/07/29 06:45:12;;;;;;;;;;;;;;;16.09;74.09;101047.78;5117212;28;20020;-36
2021/07/29 06:47:37;;;;;;;12.80;2.85;;;;;;;16.13;74.01;101048.91;5117442;28;19996;-36
2021/07/29 06:50:06;;;;;;;;;;;;;;;16.30;73.33;101054.22;5117368;28;20427;-36
2021/07/29 06:52:31;;;;;;;9.57;2.85;;;;;;;16.34;72.77;101066.22;5117104;28;19947;-36
2021/07/29 06:54:56;;;;;;;13.52;3.28;;;;;;;16.31;72.81;101046.84;5117222;28;20038;-36
2021/07/29 06:57:22;;;;;;;9.55;2.92;;;;;;;16.45;72.34;101064.41;5117487;28;20056;-35
2021/07/29 06:59:47;;;;;;;;;;;;;;;16.56;71.92;101066.09;5117508;28;20027;-35
2021/07/29 07:02:12;;;;;;;11.10;3.10;;;;;;;16.54;73.11;101067.41;5117029;28;19914;-35
2021/07/29 07:04:38;;;;;;;;;;;;;;;16.67;72.42;101066.94;5117191;28;20416;-35
2021/07/29 07:07:03;;;;;;;15.38;3.30;;;;;;;16.67;71.69;101062.31;5117253;28;20347;-36
2021/07/29 07:09:30;;;;;;;10.65;2.63;;;;;;;16.69;71.60;101057.41;5116633;28;20019;-36
2021/07/29 07:11:55;;;;;;;12.35;3.17;;;;;;;16.78;71.29;101067.84;5116440;28;20104;-36
2021/07/29 07:14:20;;;;;;;15.38;3.38;;;;;;;16.54;69.83;101048.31;5116401;28;20363;-36
2021/07/29 07:16:46;;;;;;;;;;;;;;;16.71;70.30;101068.06;5116637;28;20031;-36
2021/07/29 07:19:11;;;;;;;17.50;3.20;;;;;;;16.71;71.46;101073.53;5116342;28;19915;-36
2021/07/29 07:21:38;;;;;;;10.85;2.67;;;;;;;16.82;71.15;101071.69;5116700;28;20253;-36
2021/07/29 07:24:04;;;;;;;11.90;3.15;;;;;;;16.80;70.04;101076.59;5115948;28;20452;-36
2021/07/29 07:26:29;;;;;;;14.77;3.20;;;;;;;16.88;69.99;101087.81;5116786;28;20064;-36
2021/07/29 07:28:54;;;;;;;10.57;2.60;;;;;;;16.88;70.10;101074.16;5116234;28;20020;-36
2021/07/29 07:31:20;;;;;;;;;;;;;;;17.06;69.86;101081.06;5117145;28;20339;-36
2021/07/29 07:33:46;;;;;;;17.63;4.57;;;;;;;16.82;69.39;101079.88;5115975;28;19951;-36
2021/07/29 07:36:11;;;;;;;11.88;3.20;;;;;;;16.91;70.35;101086.47;5115678;28;20097;-36
2021/07/29 07:38:37;;;;;;;12.85;2.85;;;;;;;16.90;68.22;101084.84;5116501;28;20015;-36
2021/07/29 07:41:05;;;;;;;;;;;;;;;16.91;68.63;101100.13;5116991;28;20386;-36
2021/07/29 07:43:31;;;;;;;10.63;3.05;;;;;;;16.87;69.24;101079.91;5116490;28;19911;-36
2021/07/29 07:45:56;;;;;;;15.10;3.05;;;;;;;16.98;70.12;101084.31;5115953;28;20077;-36
2021/07/29 07:48:22;;;;;;;15.40;3.33;;;;;;;17.05;67.45;101081.34;5115908;28;20016;-36
2021/07/29 07:50:47;;;;;;;12.73;3.80;;;;;;;17.02;67.71;101090.88;5115843;28;20359;-36
2021/07/29 07:53:13;;;;;;;13.30;3.30;;;;;;;17.04;67.53;101088.72;5115726;28;20635;-36
2021/07/29 07:55:38;;;;;;;;;;;;;;;17.17;67.68;101087.38;5116734;28;20039;-36
2021/07/29 07:58:03;;;;;;;13.87;3.17;;;;;;;17.14;68.09;101094.22;5115382;28;19914;-36
2021/07/29 08:00:28;;;;;;;;;;;;;;;17.25;68.08;101098.59;5116348;28;20026;-36
2021/07/29 08:02:54;;;;;;;15.67;2.73;;;;;;;17.15;67.84;101097.75;5115273;28;19912;-36
2021/07/29 08:05:19;;;;;;;9.60;2.58;;;;;;;17.18;68.11;101091.78;5115871;28;20354;-36
2021/07/29 08:07:44;;;;;;;10.23;2.90;;;;;;;17.16;68.52;101075.63;5115442;28;20027;-36
2021/07/29 08:10:11;;;;;;;11.67;3.27;;;;;;;17.24;66.51;101082.50;5116074;28;20027;-36
2021/07/29 08:12:37;;;;;;;15.77;3.10;;;;;;;17.35;66.83;101094.25;5115602;28;20285;-35
2021/07/29 08:15:02;;;;;;;13.00;3.10;;;;;;;17.39;66.55;101081.69;5114085;28;20359;-36
2021/07/29 08:17:27;;;;;;;;;;;;;;;17.66;66.39;101090.47;5116098;28;20028;-35
2021/07/29 08:19:53;;;;;;;12.83;2.80;;;;;;;17.68;65.88;101090.22;5115226;28;19911;-35
2021/07/29 08:22:18;;;;;;;11.13;3.03;;;;;;;17.73;64.69;101092.97;5114777;28;20258;-35
2021/07/29 08:24:43;;;;;;;8.25;2.47;;;;;;;17.74;64.55;101092.69;5115159;28;20387;-35
2021/07/29 08:27:09;;;;;;;;;;;;;;;17.79;65.24;101093.81;5115632;28;20081;-35
2021/07/29 08:29:35;;;;;;;19.47;4.00;;;;;;;17.62;64.78;101094.88;5114376;28;19967;-41
2021/07/29 08:32:00;;;;;;;12.43;3.08;;;;;;;17.70;65.95;101090.75;5114766;28;20023;-35
2021/07/29 08:34:26;;;;;;;11.43;2.65;;;;;;;17.86;64.38;101099.81;5114609;28;20083;-35
2021/07/29 08:36:51;;;;;;;;;;;;;;;18.10;65.29;101092.69;5115842;28;20054;-35
2021/07/29 08:39:17;;;;;;;10.83;2.93;;;;;;;18.14;62.83;101092.97;5114753;28;19904;-35
2021/07/29 08:41:42;;;;;;;;;;;;;;;18.27;63.75;101100.63;5115098;28;20246;-35
2021/07/29 08:44:08;;;;;;;12.35;2.60;;;;;;;18.17;62.64;101086.94;5114574;28;19903;-35
2021/07/29 08:46:35;;;;;;;;;;;;;;;18.42;62.18;101092.38;5115017;28;20019;-35
2021/07/29 08:49:01;;;;;;;;;;;;;;;18.58;62.98;101092.31;5114768;28;19904;-35
2021/07/29 08:51:26;;;;;;;10.38;3.00;;;;;;;18.56;60.24;101106.31;5114377;28;19915;-35
2021/07/29 08:53:52;;;;;;;;;;;;;;;18.64;60.55;101105.75;5114598;28;20028;-35
2021/07/29 08:56:23;;;;;;;6.90;2.42;;;;;;;18.45;61.15;101097.31;5114998;28;19904;-35
2021/07/29 08:58:48;;;;;;;12.57;3.63;;;;;;;18.37;62.37;101091.56;5114806;28;20038;-35
2021/07/29 09:01:13;;;;;;;;;;;;;;;18.53;61.83;101106.84;5115359;28;20027;-35
2021/07/29 09:03:41;;;;;;;10.95;3.38;;;;;;;18.49;63.95;101105.75;5113897;28;19904;-35
2021/07/29 09:06:08;;;;;;;12.23;2.92;;;;;;;18.42;61.38;101108.81;5114402;28;20067;-35
2021/07/29 09:08:53;;;;;;;11.02;3.13;;;;;;;18.36;61.13;101095.41;5113983;28;20027;-35
2021/07/29 09:11:25;;;;;;;8.30;2.95;;;;;;;18.17;61.65;101093.25;5114328;28;20016;-35
2021/07/29 09:14:03;;;;;;;9.02;2.70;;;;;;;18.32;61.05;101116.22;5113572;28;20070;-35
2021/07/29 09:16:33;;;;;;;9.30;2.50;;;;;;;18.24;62.48;101114.84;5114648;27;20080;-35
2021/07/29 09:19:00;;;;;;;10.55;2.80;;;;;;;18.21;61.64;101115.41;5114227;28;20454;-35
2021/07/29 09:21:25;;;;;;;14.27;3.53;;;;;;;18.35;61.47;101112.91;5113597;28;20031;-35
2021/07/29 09:24:07;;;;;;;;;;;;;;;18.58;61.92;101123.28;5114328;28;20020;-36
2021/07/29 09:26:58;;;;;;;9.80;2.92;;;;;;;18.97;61.33;101123.44;5114197;28;19938;-35
2021/07/29 09:29:28;;;;;;;18.85;3.30;;;;;;;19.17;59.99;101125.28;5113701;28;20558;-35
2021/07/29 09:32:11;;;;;;;10.13;2.67;;;;;;;19.29;59.74;101120.28;5113742;28;20054;-36
2021/07/29 09:34:50;;;;;;;14.13;3.28;;;;;;;19.34;57.99;101129.59;5113336;28;20472;-36
2021/07/29 09:37:19;;;;;;;10.45;2.20;;;;;;;19.37;57.90;101124.34;5114276;28;20440;-35
2021/07/29 09:39:44;;;;;;;9.65;2.92;;;;;;;19.32;57.61;101129.03;5112732;28;20054;-35
2021/07/29 09:42:22;;;;;;;;;;;;;;;19.43;58.35;101134.22;5114668;28;20100;-35
2021/07/29 09:44:49;;;;;;;;;;;;;;;19.37;57.17;101129.00;5114052;28;19904;-35
2021/07/29 09:47:16;;;;;;;12.90;2.85;;;;;;;19.07;57.81;101117.09;5114240;28;19911;-36
2021/07/29 09:49:41;;;;;;;11.65;2.97;;;;;;;18.95;57.01;101127.59;5113839;28;20019;-35
2021/07/29 09:52:07;;;;;;;;;;;;;;;19.07;58.71;101136.28;5114113;28;20366;-35
2021/07/29 09:54:35;;;;;;;11.48;2.42;;;;;;;19.11;59.26;101120.94;5113279;28;19904;-35
2021/07/29 09:57:01;;;;;;;10.75;2.85;;;;;;;19.16;59.91;101104.44;5113890;28;20020;-36
2021/07/29 09:59:26;;;;;;;;;;;;;;;19.44;58.22;101111.16;5113710;28;20016;-36
2021/07/29 10:01:52;;;;;;;9.00;2.83;;;;;;;19.21;56.58;101112.66;5114157;28;20312;-36
2021/07/29 10:04:23;;;;;;;;;;;;;;;19.32;58.90;101121.63;5113578;28;20288;-35
2021/07/29 10:06:51;;;;;;;10.18;2.58;;;;;;;19.08;56.81;101116.03;5113874;28;19904;-36
2021/07/29 10:09:19;;;;;;;13.68;3.08;;;;;;;19.01;58.13;101126.44;5113459;28;20116;-36
2021/07/29 10:11:48;;;;;;;6.53;2.70;;;;;;;18.93;57.68;101138.81;5113304;28;20420;-35
2021/07/29 10:14:13;;;;;;;11.90;3.13;;;;;;;18.85;56.79;101124.88;5113452;28;20031;-35
2021/07/29 10:16:48;;;;;;;;;;;;;;;18.89;57.59;101126.78;5114239;28;20024;-36
2021/07/29 10:19:15;;;;;;;11.38;2.90;;;;;;;18.47;58.68;101107.97;5113379;28;20374;-35
2021/07/29 10:21:41;;;;;;;6.65;2.60;;;;;;;18.48;59.41;101123.28;5113306;28;20456;-35
2021/07/29 10:24:08;;;;;;;;;;;;;;;18.58;59.29;101133.41;5113594;28;20103;-36
2021/07/29 10:26:53;;;;;;;10.43;2.80;;;;;;;18.52;59.91;101119.72;5113785;28;19904;-37
2021/07/29 10:29:18;;;;;;;12.43;3.17;;;;;;;18.55;59.56;101123.03;5113662;28;20107;-36
2021/07/29 10:31:48;;;;;;;;;;;;;;;18.71;59.44;101128.19;5114120;28;20114;-37
2021/07/29 10:34:28;;;;;;;13.45;3.60;;;;;;;18.64;60.49;101116.72;5113276;28;19914;-37
2021/07/29 10:36:57;;;;;;;8.68;2.92;;;;;;;18.67;61.00;101126.28;5114172;28;20020;-36
2021/07/29 10:39:24;;;;;;;9.63;2.78;;;;;;;18.55;59.37;101131.25;5113274;28;20027;-36
2021/07/29 10:41:50;;;;;;;;;;;;;;;18.60;60.00;101131.22;5113845;28;20024;-36
2021/07/29 10:44:34;;;;;;;9.52;2.80;;;;;;;18.40;61.25;101141.13;5113279;28;20289;-36
2021/07/29 10:47:10;;;;;;;12.77;2.95;;;;;;;18.27;62.14;101156.19;5113581;28;20085;-36
2021/07/29 10:49:44;;;;;;;12.05;3.42;;;;;;;18.20;64.17;101161.13;5113168;28;20027;-37
2021/07/29 10:52:13;;;;;;;12.10;4.00;;;;;;;18.01;66.07;101152.63;5115142;28;20360;-37
2021/07/29 10:54:44;;;;;;;8.52;2.72;;;;;;;17.85;65.77;101164.63;5116904;28;20047;-36
2021/07/29 10:57:10;;;;;;;11.48;3.33;;;;;;;17.61;65.98;101188.91;5116935;28;20019;-36
2021/07/29 10:59:37;;;;;;;10.25;3.80;;;;;;;17.35;68.48;101204.41;5117109;28;20055;-37
2021/07/29 11:02:15;;;;;;;10.00;2.92;;;;;;;17.00;70.81;101196.88;5117008;28;20444;-37
2021/07/29 11:05:04;;;;;;;11.15;3.28;;;;;;;16.75;70.87;101189.38;5116632;28;20020;-36
2021/07/29 11:07:30;;;;;;;8.88;3.08;;;;;;;16.51;73.24;101209.91;5116960;28;20031;-36
2021/07/29 11:10:05;;;;;;;;;;;;;;;16.63;70.43;101194.97;5116880;28;20023;-36
2021/07/29 11:12:32;;;;;;;8.43;2.83;;;;;;;16.43;73.45;101197.56;5116873;28;19922;-36
2021/07/29 11:14:59;;;;;;;5.57;2.38;;;;;;;16.52;74.10;101195.19;5116522;28;20098;-36
2021/07/29 11:17:25;;;;;;;8.80;2.72;;;;;;;16.69;74.16;101184.94;5116473;28;20119;-36
2021/07/29 11:19:50;;;;;;;7.63;2.80;;;;;;;16.94;74.24;101176.91;5116623;28;20455;-36
2021/07/29 11:22:16;;;;;;;7.93;2.83;;;;;;;17.07;75.57;101170.13;5116433;28;20019;-36
2021/07/29 11:24:41;;;;;;;;;;;;;;;17.35;72.28;101176.25;5116831;28;20027;-36
2021/07/29 11:27:13;;;;;;;7.50;3.03;;;;;;;17.25;73.37;101156.00;5117064;28;19951;-36
2021/07/29 11:29:59;;;;;;;7.20;2.55;;;;;;;17.46;72.95;101164.25;5116415;28;20023;-36